createdAt,value
2018-10-15T00:00:13.732Z,9.20
2018-10-15T00:02:42.103Z,9.87
2018-10-15T00:05:10.251Z,8.80
2018-10-15T00:07:38.402Z,9.23
2018-10-15T00:10:07.125Z,9.67
2018-10-15T00:12:35.278Z,9.50
2018-10-15T00:15:13.899Z,9.50
2018-10-15T00:17:42.039Z,9.60
2018-10-15T00:20:10.183Z,8.77
2018-10-15T00:22:38.339Z,9.20
2018-10-15T00:25:06.670Z,9.47
2018-10-15T00:27:34.862Z,9.10
2018-10-15T00:30:02.983Z,9.60
2018-10-15T00:32:31.157Z,8.90
2018-10-15T00:34:59.291Z,9.50
2018-10-15T00:37:27.431Z,9.83
2018-10-15T00:39:55.579Z,9.63
2018-10-15T00:42:23.730Z,9.77
2018-10-15T00:44:51.899Z,9.57
2018-10-15T00:47:20.047Z,9.47
2018-10-15T00:49:48.219Z,9.20
2018-10-15T00:52:16.370Z,9.37
2018-10-15T00:54:44.565Z,9.43
2018-10-15T00:57:12.862Z,9.90
2018-10-15T00:59:41.055Z,10.13
2018-10-15T01:02:09.415Z,10.03
2018-10-15T01:04:37.568Z,9.37
2018-10-15T01:07:05.895Z,9.00
2018-10-15T01:09:34.375Z,10.50
2018-10-15T01:12:02.546Z,10.27
2018-10-15T01:14:30.694Z,9.80
2018-10-15T01:16:59.103Z,10.57
2018-10-15T01:19:27.250Z,9.50
2018-10-15T01:21:55.858Z,10.10
2018-10-15T01:24:24.466Z,9.50
2018-10-15T01:26:52.623Z,9.33
2018-10-15T01:29:20.771Z,9.77
2018-10-15T01:31:48.919Z,9.90
2018-10-15T01:34:17.084Z,10.37
2018-10-15T01:36:45.250Z,10.20
2018-10-15T01:39:14.552Z,9.90
2018-10-15T01:41:43.439Z,10.50
2018-10-15T01:44:12.023Z,9.67
2018-10-15T01:46:40.303Z,10.23
2018-10-15T01:49:08.450Z,9.73
2018-10-15T01:51:36.614Z,10.43
2018-10-15T01:54:05.003Z,9.97
2018-10-15T01:56:33.255Z,10.03
2018-10-15T01:59:01.387Z,9.20
2018-10-15T02:01:29.571Z,10.13
2018-10-15T02:03:58.197Z,10.30
2018-10-15T02:06:26.383Z,10.30
2018-10-15T02:08:54.523Z,9.93
2018-10-15T02:11:22.683Z,10.00
2018-10-15T02:13:50.822Z,10.57
2018-10-15T02:16:18.974Z,10.40
2018-10-15T02:18:47.119Z,10.13
2018-10-15T02:21:15.263Z,9.23
2018-10-15T02:23:43.406Z,9.87
2018-10-15T02:26:11.549Z,10.03
2018-10-15T02:28:39.692Z,10.67
2018-10-15T02:31:08.194Z,10.00
2018-10-15T02:33:36.331Z,10.83
2018-10-15T02:36:04.508Z,9.90
2018-10-15T02:38:32.642Z,10.50
2018-10-15T02:41:00.788Z,10.00
2018-10-15T02:43:28.975Z,9.97
2018-10-15T02:45:57.135Z,10.30
2018-10-15T02:48:25.270Z,9.80
2018-10-15T02:50:53.431Z,10.30
2018-10-15T02:53:21.567Z,10.13
2018-10-15T02:55:49.713Z,10.83
2018-10-15T02:58:17.858Z,9.70
2018-10-15T03:00:46.019Z,10.03
2018-10-15T03:03:14.161Z,9.80
2018-10-15T03:05:42.291Z,9.87
2018-10-15T03:08:10.451Z,10.40
2018-10-15T03:10:38.590Z,10.50
2018-10-15T03:13:06.765Z,9.50
2018-10-15T03:15:34.916Z,10.63
2018-10-15T03:18:03.071Z,10.50
2018-10-15T03:20:31.218Z,10.77
2018-10-15T03:22:59.378Z,11.23
2018-10-15T03:25:27.528Z,10.40
2018-10-15T03:27:55.678Z,10.27
2018-10-15T03:30:23.830Z,10.40
2018-10-15T03:32:51.995Z,11.07
2018-10-15T03:35:20.147Z,11.40
2018-10-15T03:37:48.308Z,10.43
2018-10-15T03:40:16.475Z,10.40
2018-10-15T03:42:44.642Z,10.30
2018-10-15T03:45:12.796Z,11.07
2018-10-15T03:47:40.961Z,10.30
2018-10-15T03:50:09.406Z,11.13
2018-10-15T03:52:37.563Z,10.23
2018-10-15T03:55:05.752Z,10.80
2018-10-15T03:57:33.908Z,10.80
2018-10-15T04:00:02.058Z,10.70
2018-10-15T04:02:30.258Z,10.60
2018-10-15T04:04:58.366Z,11.10
2018-10-15T04:07:26.502Z,11.20
2018-10-15T04:09:54.667Z,11.30
2018-10-15T04:12:22.803Z,10.53
2018-10-15T04:14:50.955Z,11.03
2018-10-15T04:17:19.119Z,10.57
2018-10-15T04:19:47.298Z,11.40
2018-10-15T04:22:15.448Z,10.70
2018-10-15T04:24:43.595Z,11.10
2018-10-15T04:27:11.739Z,11.37
2018-10-15T04:29:40.348Z,11.57
2018-10-15T04:32:08.828Z,11.27
2018-10-15T04:34:36.978Z,11.00
2018-10-15T04:37:05.138Z,11.87
2018-10-15T04:39:33.289Z,10.80
2018-10-15T04:42:01.432Z,10.03
2018-10-15T04:44:29.587Z,10.67
2018-10-15T04:46:57.749Z,11.07
2018-10-15T04:49:26.041Z,11.10
2018-10-15T04:51:54.046Z,11.30
2018-10-15T04:54:22.205Z,11.63
2018-10-15T04:56:50.354Z,11.60
2018-10-15T04:59:18.514Z,10.80
2018-10-15T05:01:46.663Z,11.93
2018-10-15T05:04:14.798Z,11.00
2018-10-15T05:06:42.955Z,11.40
2018-10-15T05:09:11.179Z,11.00
2018-10-15T05:11:39.882Z,11.50
2018-10-15T05:14:08.566Z,11.63
2018-10-15T05:16:37.169Z,11.57
2018-10-15T05:19:05.450Z,11.77
2018-10-15T05:21:33.619Z,12.47
2018-10-15T05:24:01.795Z,12.43
2018-10-15T05:26:29.911Z,12.30
2018-10-15T05:28:58.066Z,12.20
2018-10-15T05:31:26.239Z,11.87
2018-10-15T05:33:54.379Z,12.50
2018-10-15T05:36:22.593Z,12.13
2018-10-15T05:38:50.689Z,12.20
2018-10-15T05:41:18.851Z,13.40
2018-10-15T05:43:47.015Z,11.97
2018-10-15T05:46:15.174Z,12.10
2018-10-15T05:48:43.434Z,12.33
2018-10-15T05:51:11.622Z,11.60
2018-10-15T05:53:39.852Z,11.30
2018-10-15T05:56:08.104Z,13.00
2018-10-15T05:58:36.501Z,12.37
2018-10-15T06:01:05.256Z,12.63
2018-10-15T06:03:33.512Z,12.60
2018-10-15T06:06:01.693Z,13.70
2018-10-15T06:08:29.883Z,12.30
2018-10-15T06:10:58.076Z,12.20
2018-10-15T06:13:26.340Z,13.60
2018-10-15T06:15:54.436Z,13.20
2018-10-15T06:18:22.715Z,13.50
2018-10-15T06:20:50.795Z,13.40
2018-10-15T06:23:18.989Z,13.10
2018-10-15T06:25:47.153Z,13.50
2018-10-15T06:28:15.402Z,12.67
2018-10-15T06:30:43.543Z,13.87
2018-10-15T06:33:11.743Z,14.27
2018-10-15T06:35:39.899Z,12.00
2018-10-15T06:38:08.109Z,13.57
2018-10-15T06:40:36.288Z,13.13
2018-10-15T06:43:04.596Z,13.63
2018-10-15T06:45:32.800Z,13.13
2018-10-15T06:48:00.996Z,12.87
2018-10-15T06:50:29.197Z,13.53
2018-10-15T06:52:57.389Z,12.73
2018-10-15T06:55:25.651Z,13.30
2018-10-15T06:57:53.768Z,13.50
2018-10-15T07:00:21.955Z,13.17
2018-10-15T07:02:50.127Z,12.90
2018-10-15T07:05:18.308Z,13.43
2018-10-15T07:07:46.603Z,12.83
2018-10-15T07:10:14.769Z,13.03
2018-10-15T07:12:42.910Z,13.10
2018-10-15T07:15:12.179Z,13.37
2018-10-15T07:17:40.540Z,12.77
2018-10-15T07:20:08.791Z,12.90
2018-10-15T07:22:37.702Z,12.97
2018-10-15T07:25:17.377Z,12.87
2018-10-15T07:27:46.137Z,12.87
2018-10-15T07:30:14.397Z,12.63
2018-10-15T07:32:42.802Z,12.97
2018-10-15T07:35:11.020Z,13.73
2018-10-15T07:37:39.895Z,13.37
2018-10-15T07:40:08.112Z,12.10
2018-10-15T07:42:36.214Z,12.80
2018-10-15T07:45:04.707Z,12.47
2018-10-15T07:47:32.843Z,12.90
2018-10-15T07:50:01.023Z,12.17
2018-10-15T07:52:29.159Z,12.27
2018-10-15T07:54:57.358Z,12.50
2018-10-15T07:57:25.487Z,12.00
2018-10-15T07:59:53.630Z,10.93
2018-10-15T08:02:21.842Z,11.80
2018-10-15T08:04:49.922Z,12.10
2018-10-15T08:07:18.068Z,12.00
2018-10-15T08:09:46.222Z,10.03
2018-10-15T08:12:14.391Z,10.40
2018-10-15T08:14:42.633Z,8.77
2018-10-15T08:17:11.210Z,7.80
2018-10-15T08:19:40.133Z,8.43
2018-10-15T08:22:08.746Z,8.30
2018-10-15T08:24:36.850Z,7.80
2018-10-15T08:27:05.019Z,7.87
2018-10-15T08:29:33.170Z,8.50
2018-10-15T08:32:01.318Z,8.07
2018-10-15T08:34:29.519Z,8.27
2018-10-15T08:36:57.631Z,7.57
2018-10-15T08:39:25.783Z,7.70
2018-10-15T08:41:54.036Z,8.30
2018-10-15T08:44:22.113Z,7.93
2018-10-15T08:46:50.387Z,8.07
2018-10-15T08:49:18.591Z,7.80
2018-10-15T08:51:46.732Z,7.77
2018-10-15T08:54:14.905Z,8.67
2018-10-15T08:56:43.075Z,7.77
2018-10-15T08:59:11.182Z,7.00
2018-10-15T09:01:39.328Z,7.80
2018-10-15T09:04:07.466Z,7.00
2018-10-15T09:06:35.633Z,7.47
2018-10-15T09:09:05.541Z,6.90
2018-10-15T09:11:33.494Z,7.07
2018-10-15T09:14:01.631Z,7.37
2018-10-15T09:16:29.782Z,7.77
2018-10-15T09:18:57.937Z,7.00
2018-10-15T09:21:26.144Z,7.27
2018-10-15T09:23:54.274Z,7.60
2018-10-15T09:26:22.471Z,7.00
2018-10-15T09:28:50.615Z,7.57
2018-10-15T09:31:18.929Z,7.63
2018-10-15T09:33:47.068Z,7.43
2018-10-15T09:36:15.233Z,7.57
2018-10-15T09:38:43.503Z,7.67
2018-10-15T09:41:11.558Z,7.47
2018-10-15T09:43:39.719Z,8.87
2018-10-15T09:46:07.868Z,7.27
2018-10-15T09:48:36.051Z,7.53
2018-10-15T09:51:04.293Z,7.60
2018-10-15T09:53:32.445Z,7.23
2018-10-15T09:56:00.591Z,7.40
2018-10-15T09:58:28.750Z,7.50
2018-10-15T10:01:02.444Z,6.90
2018-10-15T10:03:30.532Z,7.23
2018-10-15T10:05:58.711Z,6.83
2018-10-15T10:08:26.836Z,7.30
2018-10-15T10:10:55.125Z,6.90
2018-10-15T10:13:23.218Z,7.60
2018-10-15T10:15:51.370Z,6.90
2018-10-15T10:18:19.623Z,7.00
2018-10-15T10:20:47.699Z,7.20
2018-10-15T10:23:15.795Z,7.20
2018-10-15T10:25:43.996Z,7.07
2018-10-15T10:28:12.165Z,6.77
2018-10-15T10:30:40.335Z,7.40
2018-10-15T10:33:08.427Z,6.43
2018-10-15T10:35:53.342Z,7.47
2018-10-15T10:38:33.398Z,6.67
2018-10-15T10:41:01.764Z,6.50
2018-10-15T10:43:29.910Z,6.50
2018-10-15T10:45:58.083Z,8.30
2018-10-15T10:48:26.219Z,6.80
2018-10-15T10:50:54.391Z,6.50
2018-10-15T10:53:22.551Z,9.17
2018-10-15T10:55:50.713Z,9.53
2018-10-15T10:58:18.940Z,8.13
2018-10-15T11:00:47.167Z,6.97
2018-10-15T11:03:15.311Z,10.50
2018-10-15T11:05:43.536Z,7.53
2018-10-15T11:08:11.870Z,8.37
2018-10-15T11:10:40.233Z,7.60
2018-10-15T11:13:08.394Z,6.60
2018-10-15T11:15:36.775Z,6.73
2018-10-15T11:18:04.955Z,6.67
2018-10-15T11:20:33.120Z,6.43
2018-10-15T11:23:01.263Z,7.50
2018-10-15T11:25:29.427Z,7.07
2018-10-15T11:27:57.575Z,6.63
2018-10-15T11:30:25.719Z,5.80
2018-10-15T11:32:53.866Z,6.60
2018-10-15T11:35:22.010Z,6.00
2018-10-15T11:37:50.151Z,6.50
2018-10-15T11:40:18.310Z,6.67
2018-10-15T11:42:46.548Z,5.57
2018-10-15T11:45:14.726Z,6.00
2018-10-15T11:47:42.855Z,6.30
2018-10-15T11:50:11.082Z,6.03
2018-10-15T11:52:39.198Z,6.50
2018-10-15T11:55:07.509Z,6.17
2018-10-15T11:57:35.685Z,5.70
2018-10-15T12:00:03.871Z,6.73
2018-10-15T12:02:32.024Z,6.00
2018-10-15T12:05:00.170Z,6.50
2018-10-15T12:07:28.302Z,6.13
2018-10-15T12:09:56.504Z,7.10
2018-10-15T12:12:24.635Z,6.07
2018-10-15T12:14:52.762Z,6.10
2018-10-15T12:17:20.926Z,7.13
2018-10-15T12:19:49.054Z,6.60
2018-10-15T12:22:17.191Z,6.13
2018-10-15T12:24:45.339Z,5.87
2018-10-15T12:27:13.498Z,6.27
2018-10-15T12:29:41.728Z,6.53
2018-10-15T12:32:09.761Z,6.13
2018-10-15T12:34:37.891Z,6.43
2018-10-15T12:37:06.232Z,6.17
2018-10-15T12:39:34.364Z,6.70
2018-10-15T12:42:02.514Z,6.70
2018-10-15T12:44:30.687Z,7.00
2018-10-15T12:46:58.814Z,6.07
2018-10-15T12:49:26.950Z,6.20
2018-10-15T12:51:55.090Z,6.77
2018-10-15T12:54:23.233Z,6.90
2018-10-15T12:56:51.375Z,6.60
2018-10-15T12:59:19.503Z,6.47
2018-10-15T13:01:47.638Z,6.47
2018-10-15T13:04:15.847Z,6.77
2018-10-15T13:06:43.922Z,7.10
2018-10-15T13:09:12.051Z,6.47
2018-10-15T13:11:40.613Z,6.10
2018-10-15T13:14:08.758Z,6.50
2018-10-15T13:16:36.901Z,5.93
2018-10-15T13:19:05.076Z,6.07
2018-10-15T13:21:33.818Z,5.80
2018-10-15T13:24:02.419Z,5.60
2018-10-15T13:26:30.646Z,5.60
2018-10-15T13:28:58.711Z,5.93
2018-10-15T13:31:26.858Z,5.90
2018-10-15T13:33:55.231Z,5.80
2018-10-15T13:36:23.522Z,5.77
2018-10-15T13:38:51.725Z,5.43
2018-10-15T13:41:19.859Z,5.50
2018-10-15T13:43:48.017Z,5.47
2018-10-15T13:46:16.151Z,5.83
2018-10-15T13:48:44.338Z,5.50
2018-10-15T13:51:12.471Z,5.70
2018-10-15T13:53:40.627Z,6.30
2018-10-15T13:56:08.771Z,5.70
2018-10-15T13:58:36.922Z,5.77
2018-10-15T14:01:05.407Z,5.57
2018-10-15T14:03:33.550Z,6.60
2018-10-15T14:06:01.712Z,5.57
2018-10-15T14:08:29.857Z,5.33
2018-10-15T14:10:58.010Z,5.80
2018-10-15T14:13:26.295Z,5.80
2018-10-15T14:15:54.423Z,5.40
2018-10-15T14:18:22.555Z,5.83
2018-10-15T14:20:50.714Z,5.90
2018-10-15T14:23:18.859Z,6.10
2018-10-15T14:25:46.992Z,5.80
2018-10-15T14:28:15.114Z,5.90
2018-10-15T14:30:43.244Z,5.57
2018-10-15T14:33:11.383Z,6.60
2018-10-15T14:35:39.510Z,5.43
2018-10-15T14:38:07.639Z,5.87
2018-10-15T14:40:35.778Z,5.17
2018-10-15T14:43:03.939Z,5.30
2018-10-15T14:45:32.070Z,5.93
2018-10-15T14:48:00.208Z,5.80
2018-10-15T14:50:28.399Z,7.03
2018-10-15T14:52:56.486Z,6.00
2018-10-15T14:55:24.630Z,5.93
2018-10-15T14:57:52.764Z,6.93
2018-10-15T15:00:20.894Z,6.00
2018-10-15T15:02:49.031Z,6.50
2018-10-15T15:05:17.171Z,6.30
2018-10-15T15:07:45.382Z,6.00
2018-10-15T15:10:25.533Z,6.10
2018-10-15T15:13:05.291Z,5.80
2018-10-15T15:15:33.378Z,6.40
2018-10-15T15:18:01.505Z,6.43
2018-10-15T15:20:29.638Z,5.97
2018-10-15T15:22:57.767Z,6.30
2018-10-15T15:25:25.894Z,6.13
2018-10-15T15:27:54.079Z,5.93
2018-10-15T15:30:22.153Z,5.53
2018-10-15T15:32:50.347Z,5.97
2018-10-15T15:35:18.398Z,5.97
2018-10-15T15:37:46.567Z,6.43
2018-10-15T15:40:14.797Z,6.07
2018-10-15T15:42:43.189Z,6.70
2018-10-15T15:45:12.838Z,5.90
2018-10-15T15:47:41.181Z,5.90
2018-10-15T15:50:09.889Z,5.87
2018-10-15T15:52:38.162Z,6.53
2018-10-15T15:55:07.047Z,6.10
2018-10-15T15:57:35.266Z,6.47
2018-10-15T16:00:03.418Z,6.90
2018-10-15T16:02:31.554Z,5.97
2018-10-15T16:04:59.678Z,6.60
2018-10-15T16:07:27.834Z,6.43
2018-10-15T16:09:58.663Z,6.20
2018-10-15T16:12:27.942Z,7.40
2018-10-15T16:14:56.090Z,7.30
2018-10-15T16:17:24.227Z,6.60
2018-10-15T16:19:52.355Z,7.57
2018-10-15T16:22:20.486Z,7.50
2018-10-15T16:24:48.650Z,7.50
2018-10-15T16:27:16.775Z,8.00
2018-10-15T16:29:44.903Z,7.40
2018-10-15T16:32:13.050Z,8.33
2018-10-15T16:34:41.274Z,9.00
2018-10-15T16:37:09.423Z,8.13
2018-10-15T16:39:37.551Z,9.20
2018-10-15T16:42:05.747Z,7.43
2018-10-15T16:44:33.879Z,7.63
2018-10-15T16:47:02.230Z,8.30
2018-10-15T16:49:30.366Z,8.70
2018-10-15T16:51:58.551Z,8.83
2018-10-15T16:54:26.647Z,7.80
2018-10-15T16:56:54.779Z,8.33
2018-10-15T16:59:22.923Z,8.00
2018-10-15T17:01:51.055Z,7.80
2018-10-15T17:04:19.205Z,7.27
2018-10-15T17:06:47.346Z,6.53
2018-10-15T17:09:15.762Z,8.20
2018-10-15T17:11:44.438Z,8.87
2018-10-15T17:14:12.667Z,7.63
2018-10-15T17:16:40.824Z,8.27
2018-10-15T17:19:10.379Z,8.10
2018-10-15T17:21:38.903Z,7.63
2018-10-15T17:24:07.395Z,7.53
2018-10-15T17:26:35.531Z,8.87
2018-10-15T17:29:03.700Z,8.20
2018-10-15T17:31:31.863Z,8.50
2018-10-15T17:34:00.020Z,9.37
2018-10-15T17:36:28.213Z,9.57
2018-10-15T17:38:57.491Z,9.00
2018-10-15T17:41:25.655Z,9.17
2018-10-15T17:43:53.828Z,9.40
2018-10-15T17:46:21.958Z,10.20
2018-10-15T17:48:50.126Z,10.87
2018-10-15T17:51:18.343Z,10.87
2018-10-15T17:53:46.510Z,10.77
2018-10-15T17:56:14.670Z,12.90
2018-10-15T17:58:42.861Z,11.30
2018-10-15T18:01:10.963Z,12.20
2018-10-15T18:03:39.119Z,11.43
2018-10-15T18:06:07.371Z,11.73
2018-10-15T18:08:35.487Z,12.13
2018-10-15T18:11:03.663Z,13.90
2018-10-15T18:13:31.838Z,14.70
2018-10-15T18:16:00.089Z,15.03
2018-10-15T18:18:28.206Z,13.97
2018-10-15T18:20:56.369Z,15.00
2018-10-15T18:23:24.527Z,13.83
2018-10-15T18:25:52.696Z,15.23
2018-10-15T18:28:20.800Z,13.40
2018-10-15T18:30:48.951Z,13.00
2018-10-15T18:33:17.103Z,11.90
2018-10-15T18:35:45.284Z,14.00
2018-10-15T18:38:13.419Z,13.10
2018-10-15T18:40:41.566Z,13.10
2018-10-15T18:43:09.845Z,12.67
2018-10-15T18:45:37.993Z,11.47
2018-10-15T18:48:06.153Z,11.47
2018-10-15T18:50:34.310Z,11.90
2018-10-15T18:53:02.458Z,12.40
2018-10-15T18:55:30.595Z,12.87
2018-10-15T18:57:58.808Z,11.97
2018-10-15T19:00:27.032Z,13.00
2018-10-15T19:02:55.253Z,15.57
2018-10-15T19:05:23.429Z,15.90
2018-10-15T19:07:51.570Z,17.47
2018-10-15T19:10:19.707Z,17.97
2018-10-15T19:12:47.871Z,18.80
2018-10-15T19:15:16.115Z,18.67
2018-10-15T19:17:44.287Z,17.23
2018-10-15T19:20:14.205Z,15.87
2018-10-15T19:22:42.505Z,14.87
2018-10-15T19:25:10.675Z,14.33
2018-10-15T19:27:38.897Z,13.70
2018-10-15T19:30:09.062Z,13.87
2018-10-15T19:32:37.249Z,14.43
2018-10-15T19:35:06.090Z,14.67
2018-10-15T19:37:34.246Z,13.53
2018-10-15T19:40:02.402Z,14.17
2018-10-15T19:42:30.559Z,14.47
2018-10-15T19:44:58.702Z,14.13
2018-10-15T19:47:26.877Z,14.67
2018-10-15T19:49:55.030Z,15.43
2018-10-15T19:52:23.192Z,14.80
2018-10-15T19:54:51.331Z,15.80
2018-10-15T19:57:19.479Z,16.63
2018-10-15T19:59:47.717Z,16.80
2018-10-15T20:02:15.886Z,16.97
2018-10-15T20:04:44.063Z,15.77
2018-10-15T20:07:12.223Z,16.23
2018-10-15T20:09:40.402Z,15.40
2018-10-15T20:12:08.722Z,16.20
2018-10-15T20:14:36.898Z,14.20
2018-10-15T20:17:05.223Z,15.37
2018-10-15T20:19:33.395Z,14.37
2018-10-15T20:22:01.539Z,15.10
2018-10-15T20:24:29.699Z,14.70
2018-10-15T20:26:57.851Z,13.60
2018-10-15T20:29:26.011Z,14.20
2018-10-15T20:31:54.279Z,14.60
2018-10-15T20:34:22.487Z,15.00
2018-10-15T20:36:50.634Z,14.17
2018-10-15T20:39:18.787Z,14.13
2018-10-15T20:41:46.938Z,14.50
2018-10-15T20:44:15.122Z,14.50
2018-10-15T20:46:43.279Z,15.00
2018-10-15T20:49:11.454Z,13.73
2018-10-15T20:51:39.590Z,13.57
2018-10-15T20:54:08.333Z,13.33
2018-10-15T20:56:36.494Z,13.27
2018-10-15T20:59:04.799Z,13.37
2018-10-15T21:01:32.949Z,12.70
2018-10-15T21:04:01.105Z,12.40
2018-10-15T21:06:29.311Z,11.93
2018-10-15T21:08:57.482Z,11.80
2018-10-15T21:11:25.632Z,12.23
2018-10-15T21:13:53.779Z,12.07
2018-10-15T21:16:21.943Z,12.60
2018-10-15T21:18:51.090Z,13.20
2018-10-15T21:21:19.246Z,13.30
2018-10-15T21:23:47.371Z,13.10
2018-10-15T21:26:15.518Z,13.40
2018-10-15T21:28:43.654Z,13.23
2018-10-15T21:31:11.830Z,13.53
2018-10-15T21:33:39.970Z,13.60
2018-10-15T21:36:08.106Z,12.90
2018-10-15T21:38:36.251Z,13.20
2018-10-15T21:41:04.703Z,13.40
2018-10-15T21:43:32.847Z,13.10
2018-10-15T21:46:01.091Z,11.83
2018-10-15T21:48:29.160Z,13.10
2018-10-15T21:50:57.306Z,13.20
2018-10-15T21:53:25.437Z,12.80
2018-10-15T21:55:53.652Z,13.20
2018-10-15T21:58:21.745Z,12.67
2018-10-15T22:00:50.981Z,14.27
2018-10-15T22:03:19.357Z,13.00
2018-10-15T22:05:47.570Z,13.33
2018-10-15T22:08:15.682Z,13.10
2018-10-15T22:10:43.833Z,13.53
2018-10-15T22:13:11.966Z,12.70
2018-10-15T22:15:40.143Z,13.43
2018-10-15T22:18:08.279Z,13.27
2018-10-15T22:20:36.415Z,13.40
2018-10-15T22:23:04.558Z,12.60
2018-10-15T22:25:32.695Z,12.43
2018-10-15T22:28:00.966Z,13.17
2018-10-15T22:30:29.114Z,12.80
2018-10-15T22:32:57.242Z,13.00
2018-10-15T22:35:25.379Z,12.30
2018-10-15T22:37:53.526Z,12.43
2018-10-15T22:40:21.658Z,12.10
2018-10-15T22:42:50.710Z,12.30
2018-10-15T22:45:18.814Z,12.30
2018-10-15T22:47:46.948Z,12.83
2018-10-15T22:50:15.079Z,11.90
2018-10-15T22:52:43.219Z,12.40
2018-10-15T22:55:11.354Z,12.20
2018-10-15T22:57:39.502Z,12.83
2018-10-15T23:00:11.955Z,12.70
2018-10-15T23:02:40.102Z,12.43
2018-10-15T23:05:08.239Z,12.73
2018-10-15T23:07:36.378Z,11.83
2018-10-15T23:10:04.823Z,12.07
2018-10-15T23:12:32.970Z,12.63
2018-10-15T23:15:01.156Z,12.60
2018-10-15T23:17:29.284Z,12.43
2018-10-15T23:19:57.427Z,12.50
2018-10-15T23:22:25.554Z,12.70
2018-10-15T23:24:53.690Z,13.90
2018-10-15T23:27:21.846Z,13.90
2018-10-15T23:29:50.079Z,12.50
2018-10-15T23:32:18.207Z,12.83
2018-10-15T23:34:46.346Z,11.80
2018-10-15T23:37:14.478Z,11.87
2018-10-15T23:39:42.622Z,12.37
2018-10-15T23:42:10.746Z,12.17
2018-10-15T23:44:38.899Z,12.37
2018-10-15T23:47:07.018Z,11.90
2018-10-15T23:49:35.154Z,11.80
2018-10-15T23:52:03.292Z,12.13
2018-10-15T23:54:31.434Z,11.97
2018-10-15T23:56:59.579Z,11.10
2018-10-15T23:59:27.717Z,11.60
